sensor_id;sensor_type;location;lat;lon;timestamp;pressure;altitude;pressure_sealevel;temperature
42673;BMP280;28284;46.514;30.724;2023-05-23T00:01:11;100529.78;;;20.58
42673;BMP280;28284;46.514;30.724;2023-05-23T00:03:38;100536.03;;;20.58
42673;BMP280;28284;46.514;30.724;2023-05-23T00:06:05;100536.03;;;20.58
42673;BMP280;28284;46.514;30.724;2023-05-23T00:08:30;100534.19;;;20.55
42673;BMP280;28284;46.514;30.724;2023-05-23T00:10:55;100537.34;;;20.54
42673;BMP280;28284;46.514;30.724;2023-05-23T00:13:21;100540.13;;;20.54
42673;BMP280;28284;46.514;30.724;2023-05-23T00:15:46;100537.06;;;20.52
42673;BMP280;28284;46.514;30.724;2023-05-23T00:18:12;100537.19;;;20.48
42673;BMP280;28284;46.514;30.724;2023-05-23T00:20:39;100528.31;;;20.44
42673;BMP280;28284;46.514;30.724;2023-05-23T00:23:07;100529.63;;;20.40
42673;BMP280;28284;46.514;30.724;2023-05-23T00:25:34;100532.03;;;20.38
42673;BMP280;28284;46.514;30.724;2023-05-23T00:27:59;100527.44;;;20.35
42673;BMP280;28284;46.514;30.724;2023-05-23T00:30:25;100524.06;;;20.31
42673;BMP280;28284;46.514;30.724;2023-05-23T00:32:51;100524.94;;;20.28
42673;BMP280;28284;46.514;30.724;2023-05-23T00:35:18;100521.56;;;20.24
42673;BMP280;28284;46.514;30.724;2023-05-23T00:37:44;100520.00;;;20.23
42673;BMP280;28284;46.514;30.724;2023-05-23T00:40:09;100519.69;;;20.21
42673;BMP280;28284;46.514;30.724;2023-05-23T00:42:35;100520.13;;;20.19
42673;BMP280;28284;46.514;30.724;2023-05-23T00:45:00;100510.34;;;20.18
42673;BMP280;28284;46.514;30.724;2023-05-23T00:47:25;100514.28;;;20.17
42673;BMP280;28284;46.514;30.724;2023-05-23T00:49:50;100517.50;;;20.16
42673;BMP280;28284;46.514;30.724;2023-05-23T00:52:16;100508.00;;;20.17
42673;BMP280;28284;46.514;30.724;2023-05-23T00:54:41;100497.91;;;20.14
42673;BMP280;28284;46.514;30.724;2023-05-23T00:57:06;100490.97;;;20.22
42673;BMP280;28284;46.514;30.724;2023-05-23T00:59:34;100494.78;;;20.24
42673;BMP280;28284;46.514;30.724;2023-05-23T01:02:00;100500.91;;;20.28
42673;BMP280;28284;46.514;30.724;2023-05-23T01:04:26;100495.34;;;20.32
42673;BMP280;28284;46.514;30.724;2023-05-23T01:06:55;100497.19;;;20.35
42673;BMP280;28284;46.514;30.724;2023-05-23T01:09:20;100501.03;;;20.37
42673;BMP280;28284;46.514;30.724;2023-05-23T01:14:15;100495.06;;;20.39
42673;BMP280;28284;46.514;30.724;2023-05-23T01:16:58;100492.31;;;20.39
42673;BMP280;28284;46.514;30.724;2023-05-23T01:21:53;100494.44;;;20.35
42673;BMP280;28284;46.514;30.724;2023-05-23T01:29:32;100498.00;;;20.23
42673;BMP280;28284;46.514;30.724;2023-05-23T01:31:58;100504.50;;;20.16
42673;BMP280;28284;46.514;30.724;2023-05-23T01:34:24;100503.06;;;20.12
42673;BMP280;28284;46.514;30.724;2023-05-23T01:36:52;100499.25;;;20.09
42673;BMP280;28284;46.514;30.724;2023-05-23T01:39:19;100502.91;;;20.06
42673;BMP280;28284;46.514;30.724;2023-05-23T01:41:45;100499.38;;;20.06
42673;BMP280;28284;46.514;30.724;2023-05-23T01:44:10;100500.56;;;20.05
42673;BMP280;28284;46.514;30.724;2023-05-23T01:46:35;100503.31;;;20.05
42673;BMP280;28284;46.514;30.724;2023-05-23T01:49:03;100500.25;;;20.03
42673;BMP280;28284;46.514;30.724;2023-05-23T01:51:30;100509.72;;;20.02
42673;BMP280;28284;46.514;30.724;2023-05-23T01:53:55;100508.50;;;20.03
42673;BMP280;28284;46.514;30.724;2023-05-23T01:56:21;100506.06;;;20.05
42673;BMP280;28284;46.514;30.724;2023-05-23T01:58:47;100506.41;;;20.07
42673;BMP280;28284;46.514;30.724;2023-05-23T02:01:12;100513.41;;;20.08
42673;BMP280;28284;46.514;30.724;2023-05-23T02:03:37;100503.97;;;20.09
42673;BMP280;28284;46.514;30.724;2023-05-23T02:06:03;100503.53;;;20.10
42673;BMP280;28284;46.514;30.724;2023-05-23T02:08:28;100496.34;;;20.13
42673;BMP280;28284;46.514;30.724;2023-05-23T02:10:53;100505.72;;;20.15
42673;BMP280;28284;46.514;30.724;2023-05-23T02:13:19;100508.00;;;20.17
42673;BMP280;28284;46.514;30.724;2023-05-23T02:15:44;100513.38;;;20.20
42673;BMP280;28284;46.514;30.724;2023-05-23T02:18:09;100511.75;;;20.23
42673;BMP280;28284;46.514;30.724;2023-05-23T02:20:35;100515.16;;;20.27
42673;BMP280;28284;46.514;30.724;2023-05-23T02:23:00;100526.47;;;20.29
42673;BMP280;28284;46.514;30.724;2023-05-23T02:25:25;100533.06;;;20.31
42673;BMP280;28284;46.514;30.724;2023-05-23T02:27:50;100526.66;;;20.34
42673;BMP280;28284;46.514;30.724;2023-05-23T02:30:16;100523.50;;;20.36
42673;BMP280;28284;46.514;30.724;2023-05-23T02:32:41;100522.59;;;20.39
42673;BMP280;28284;46.514;30.724;2023-05-23T02:35:06;100524.81;;;20.53
42673;BMP280;28284;46.514;30.724;2023-05-23T02:37:32;100530.28;;;20.65
42673;BMP280;28284;46.514;30.724;2023-05-23T02:39:57;100528.63;;;20.67
42673;BMP280;28284;46.514;30.724;2023-05-23T02:42:22;100530.28;;;20.65
42673;BMP280;28284;46.514;30.724;2023-05-23T02:44:48;100525.25;;;20.63
42673;BMP280;28284;46.514;30.724;2023-05-23T02:47:13;100518.03;;;20.66
42673;BMP280;28284;46.514;30.724;2023-05-23T02:49:38;100527.50;;;20.65
42673;BMP280;28284;46.514;30.724;2023-05-23T02:52:04;100521.53;;;20.58
42673;BMP280;28284;46.514;30.724;2023-05-23T02:54:29;100516.13;;;20.54
42673;BMP280;28284;46.514;30.724;2023-05-23T02:56:55;100514.16;;;20.55
42673;BMP280;28284;46.514;30.724;2023-05-23T02:59:20;100523.06;;;20.59
42673;BMP280;28284;46.514;30.724;2023-05-23T03:01:47;100522.50;;;20.63
42673;BMP280;28284;46.514;30.724;2023-05-23T03:04:12;100527.09;;;20.66
42673;BMP280;28284;46.514;30.724;2023-05-23T03:06:38;100530.03;;;20.72
42673;BMP280;28284;46.514;30.724;2023-05-23T03:09:03;100537.25;;;20.78
42673;BMP280;28284;46.514;30.724;2023-05-23T03:11:29;100536.22;;;20.85
42673;BMP280;28284;46.514;30.724;2023-05-23T03:13:54;100530.78;;;20.94
42673;BMP280;28284;46.514;30.724;2023-05-23T03:16:21;100530.84;;;21.03
42673;BMP280;28284;46.514;30.724;2023-05-23T03:18:46;100522.16;;;21.13
42673;BMP280;28284;46.514;30.724;2023-05-23T03:21:11;100529.94;;;21.27
42673;BMP280;28284;46.514;30.724;2023-05-23T03:23:36;100529.34;;;21.41
42673;BMP280;28284;46.514;30.724;2023-05-23T03:26:02;100524.66;;;21.50
42673;BMP280;28284;46.514;30.724;2023-05-23T03:28:29;100527.75;;;21.61
42673;BMP280;28284;46.514;30.724;2023-05-23T03:30:55;100530.53;;;21.70
42673;BMP280;28284;46.514;30.724;2023-05-23T03:33:20;100527.47;;;21.77
42673;BMP280;28284;46.514;30.724;2023-05-23T03:35:45;100532.72;;;21.84
42673;BMP280;28284;46.514;30.724;2023-05-23T03:38:10;100533.19;;;21.91
42673;BMP280;28284;46.514;30.724;2023-05-23T03:40:36;100534.41;;;21.99
42673;BMP280;28284;46.514;30.724;2023-05-23T03:43:02;100532.44;;;22.09
42673;BMP280;28284;46.514;30.724;2023-05-23T03:45:29;100539.34;;;22.22
42673;BMP280;28284;46.514;30.724;2023-05-23T03:47:54;100545.97;;;22.34
42673;BMP280;28284;46.514;30.724;2023-05-23T03:50:20;100548.25;;;22.44
42673;BMP280;28284;46.514;30.724;2023-05-23T03:52:45;100545.19;;;22.51
42673;BMP280;28284;46.514;30.724;2023-05-23T03:55:13;100544.09;;;22.57
42673;BMP280;28284;46.514;30.724;2023-05-23T03:57:39;100534.28;;;22.56
42673;BMP280;28284;46.514;30.724;2023-05-23T04:00:04;100548.84;;;22.66
42673;BMP280;28284;46.514;30.724;2023-05-23T04:02:36;100542.09;;;22.76
42673;BMP280;28284;46.514;30.724;2023-05-23T04:05:01;100539.47;;;22.90
42673;BMP280;28284;46.514;30.724;2023-05-23T04:07:27;100545.84;;;23.05
42673;BMP280;28284;46.514;30.724;2023-05-23T04:09:52;100540.72;;;23.21
42673;BMP280;28284;46.514;30.724;2023-05-23T04:12:17;100547.69;;;23.49
42673;BMP280;28284;46.514;30.724;2023-05-23T04:14:43;100550.56;;;23.78
42673;BMP280;28284;46.514;30.724;2023-05-23T04:17:08;100551.69;;;23.95
42673;BMP280;28284;46.514;30.724;2023-05-23T04:19:34;100548.44;;;24.19
42673;BMP280;28284;46.514;30.724;2023-05-23T04:21:59;100560.63;;;24.51
42673;BMP280;28284;46.514;30.724;2023-05-23T04:24:25;100553.84;;;24.66
42673;BMP280;28284;46.514;30.724;2023-05-23T04:26:50;100550.81;;;24.78
42673;BMP280;28284;46.514;30.724;2023-05-23T04:29:15;100560.66;;;24.94
42673;BMP280;28284;46.514;30.724;2023-05-23T04:31:40;100561.41;;;25.09
42673;BMP280;28284;46.514;30.724;2023-05-23T04:34:06;100556.56;;;25.23
42673;BMP280;28284;46.514;30.724;2023-05-23T04:36:32;100547.88;;;25.30
42673;BMP280;28284;46.514;30.724;2023-05-23T04:38:57;100556.94;;;25.31
42673;BMP280;28284;46.514;30.724;2023-05-23T04:41:22;100563.72;;;25.30
42673;BMP280;28284;46.514;30.724;2023-05-23T04:43:48;100566.06;;;25.31
42673;BMP280;28284;46.514;30.724;2023-05-23T04:46:18;100566.44;;;25.24
42673;BMP280;28284;46.514;30.724;2023-05-23T04:48:46;100572.19;;;25.07
42673;BMP280;28284;46.514;30.724;2023-05-23T04:51:12;100576.13;;;24.86
42673;BMP280;28284;46.514;30.724;2023-05-23T04:53:37;100576.75;;;24.66
42673;BMP280;28284;46.514;30.724;2023-05-23T04:56:05;100574.25;;;24.40
42673;BMP280;28284;46.514;30.724;2023-05-23T04:58:32;100575.75;;;24.26
42673;BMP280;28284;46.514;30.724;2023-05-23T05:00:58;100572.34;;;24.31
42673;BMP280;28284;46.514;30.724;2023-05-23T05:03:23;100572.75;;;24.39
42673;BMP280;28284;46.514;30.724;2023-05-23T05:05:49;100572.66;;;24.48
42673;BMP280;28284;46.514;30.724;2023-05-23T05:08:14;100582.41;;;24.58
42673;BMP280;28284;46.514;30.724;2023-05-23T05:10:39;100582.31;;;24.66
42673;BMP280;28284;46.514;30.724;2023-05-23T05:13:05;100579.16;;;24.88
42673;BMP280;28284;46.514;30.724;2023-05-23T05:15:30;100574.13;;;25.01
42673;BMP280;28284;46.514;30.724;2023-05-23T05:17:56;100577.63;;;25.15
42673;BMP280;28284;46.514;30.724;2023-05-23T05:20:21;100574.38;;;25.31
42673;BMP280;28284;46.514;30.724;2023-05-23T05:22:53;100575.66;;;25.36
42673;BMP280;28284;46.514;30.724;2023-05-23T05:25:19;100577.69;;;25.35
42673;BMP280;28284;46.514;30.724;2023-05-23T05:27:45;100566.72;;;25.26
42673;BMP280;28284;46.514;30.724;2023-05-23T05:30:10;100576.59;;;25.13
42673;BMP280;28284;46.514;30.724;2023-05-23T05:32:35;100578.88;;;25.14
42673;BMP280;28284;46.514;30.724;2023-05-23T05:35:01;100576.19;;;25.20
42673;BMP280;28284;46.514;30.724;2023-05-23T05:37:27;100574.16;;;25.20
42673;BMP280;28284;46.514;30.724;2023-05-23T05:39:53;100575.03;;;25.26
42673;BMP280;28284;46.514;30.724;2023-05-23T05:42:18;100580.47;;;25.35
42673;BMP280;28284;46.514;30.724;2023-05-23T05:44:44;100579.22;;;25.36
42673;BMP280;28284;46.514;30.724;2023-05-23T05:47:09;100578.00;;;25.23
42673;BMP280;28284;46.514;30.724;2023-05-23T05:49:34;100573.59;;;25.16
42673;BMP280;28284;46.514;30.724;2023-05-23T05:52:00;100574.44;;;25.37
42673;BMP280;28284;46.514;30.724;2023-05-23T05:54:25;100577.63;;;25.64
42673;BMP280;28284;46.514;30.724;2023-05-23T05:56:50;100582.91;;;25.82
42673;BMP280;28284;46.514;30.724;2023-05-23T05:59:16;100582.25;;;25.72
42673;BMP280;28284;46.514;30.724;2023-05-23T06:01:41;100583.63;;;25.63
42673;BMP280;28284;46.514;30.724;2023-05-23T06:04:08;100582.44;;;25.49
42673;BMP280;28284;46.514;30.724;2023-05-23T06:06:34;100583.13;;;25.44
42673;BMP280;28284;46.514;30.724;2023-05-23T06:08:59;100581.25;;;25.70
42673;BMP280;28284;46.514;30.724;2023-05-23T06:11:24;100582.41;;;26.03
42673;BMP280;28284;46.514;30.724;2023-05-23T06:13:50;100589.75;;;26.26
42673;BMP280;28284;46.514;30.724;2023-05-23T06:16:16;100586.34;;;26.36
42673;BMP280;28284;46.514;30.724;2023-05-23T06:18:41;100580.28;;;26.63
42673;BMP280;28284;46.514;30.724;2023-05-23T06:21:06;100579.44;;;27.08
42673;BMP280;28284;46.514;30.724;2023-05-23T06:23:31;100578.19;;;27.50
42673;BMP280;28284;46.514;30.724;2023-05-23T06:25:57;100590.03;;;27.92
42673;BMP280;28284;46.514;30.724;2023-05-23T06:28:23;100584.59;;;28.30
42673;BMP280;28284;46.514;30.724;2023-05-23T06:30:48;100590.94;;;28.80
42673;BMP280;28284;46.514;30.724;2023-05-23T06:33:13;100587.88;;;29.05
42673;BMP280;28284;46.514;30.724;2023-05-23T06:35:39;100599.31;;;29.07
42673;BMP280;28284;46.514;30.724;2023-05-23T06:38:04;100589.66;;;29.19
42673;BMP280;28284;46.514;30.724;2023-05-23T06:40:29;100586.78;;;29.41
42673;BMP280;28284;46.514;30.724;2023-05-23T06:42:54;100585.72;;;29.60
42673;BMP280;28284;46.514;30.724;2023-05-23T06:45:20;100588.59;;;30.00
42673;BMP280;28284;46.514;30.724;2023-05-23T06:47:45;100586.59;;;29.90
42673;BMP280;28284;46.514;30.724;2023-05-23T06:50:12;100580.41;;;30.08
42673;BMP280;28284;46.514;30.724;2023-05-23T06:52:37;100588.72;;;30.53
42673;BMP280;28284;46.514;30.724;2023-05-23T06:55:02;100592.50;;;30.85
42673;BMP280;28284;46.514;30.724;2023-05-23T06:57:28;100593.94;;;30.97
42673;BMP280;28284;46.514;30.724;2023-05-23T06:59:53;100591.34;;;30.75
42673;BMP280;28284;46.514;30.724;2023-05-23T07:02:19;100595.25;;;30.61
42673;BMP280;28284;46.514;30.724;2023-05-23T07:04:44;100586.19;;;30.50
42673;BMP280;28284;46.514;30.724;2023-05-23T07:07:10;100597.34;;;30.55
42673;BMP280;28284;46.514;30.724;2023-05-23T07:09:36;100596.03;;;30.62
42673;BMP280;28284;46.514;30.724;2023-05-23T07:12:01;100603.16;;;30.63
42673;BMP280;28284;46.514;30.724;2023-05-23T07:14:26;100598.72;;;30.43
42673;BMP280;28284;46.514;30.724;2023-05-23T07:16:52;100589.38;;;30.94
42673;BMP280;28284;46.514;30.724;2023-05-23T07:19:17;100598.78;;;31.62
42673;BMP280;28284;46.514;30.724;2023-05-23T07:21:42;100600.38;;;31.94
42673;BMP280;28284;46.514;30.724;2023-05-23T07:24:08;100598.16;;;32.24
42673;BMP280;28284;46.514;30.724;2023-05-23T07:26:33;100599.28;;;32.78
42673;BMP280;28284;46.514;30.724;2023-05-23T07:28:58;100593.84;;;32.54
42673;BMP280;28284;46.514;30.724;2023-05-23T07:31:23;100597.25;;;32.47
42673;BMP280;28284;46.514;30.724;2023-05-23T07:33:49;100596.78;;;32.30
42673;BMP280;28284;46.514;30.724;2023-05-23T07:36:14;100591.06;;;32.67
42673;BMP280;28284;46.514;30.724;2023-05-23T07:38:40;100597.34;;;33.11
42673;BMP280;28284;46.514;30.724;2023-05-23T07:41:05;100593.78;;;33.36
42673;BMP280;28284;46.514;30.724;2023-05-23T07:43:31;100599.47;;;33.57
42673;BMP280;28284;46.514;30.724;2023-05-23T07:45:56;100600.56;;;33.67
42673;BMP280;28284;46.514;30.724;2023-05-23T07:48:21;100591.63;;;33.55
42673;BMP280;28284;46.514;30.724;2023-05-23T07:50:46;100597.59;;;33.26
42673;BMP280;28284;46.514;30.724;2023-05-23T07:53:13;100594.75;;;33.39
42673;BMP280;28284;46.514;30.724;2023-05-23T07:55:38;100595.88;;;33.69
42673;BMP280;28284;46.514;30.724;2023-05-23T07:58:03;100591.69;;;33.96
42673;BMP280;28284;46.514;30.724;2023-05-23T08:00:29;100584.03;;;34.17
42673;BMP280;28284;46.514;30.724;2023-05-23T08:02:54;100587.97;;;34.54
42673;BMP280;28284;46.514;30.724;2023-05-23T08:05:20;100588.44;;;34.73
42673;BMP280;28284;46.514;30.724;2023-05-23T08:07:46;100585.63;;;34.73
42673;BMP280;28284;46.514;30.724;2023-05-23T08:10:12;100586.47;;;34.33
42673;BMP280;28284;46.514;30.724;2023-05-23T08:12:37;100585.69;;;34.32
42673;BMP280;28284;46.514;30.724;2023-05-23T08:15:02;100578.81;;;34.41
42673;BMP280;28284;46.514;30.724;2023-05-23T08:17:28;100579.00;;;34.63
42673;BMP280;28284;46.514;30.724;2023-05-23T08:19:53;100582.72;;;34.86
42673;BMP280;28284;46.514;30.724;2023-05-23T08:22:18;100576.56;;;35.22
42673;BMP280;28284;46.514;30.724;2023-05-23T08:24:44;100583.78;;;35.46
42673;BMP280;28284;46.514;30.724;2023-05-23T08:27:09;100578.00;;;35.58
42673;BMP280;28284;46.514;30.724;2023-05-23T08:29:34;100576.16;;;35.76
42673;BMP280;28284;46.514;30.724;2023-05-23T08:32:01;100587.84;;;35.87
42673;BMP280;28284;46.514;30.724;2023-05-23T08:34:26;100573.56;;;36.00
42673;BMP280;28284;46.514;30.724;2023-05-23T08:36:51;100569.81;;;35.90
42673;BMP280;28284;46.514;30.724;2023-05-23T08:39:17;100576.56;;;35.87
42673;BMP280;28284;46.514;30.724;2023-05-23T08:41:42;100563.59;;;35.99
42673;BMP280;28284;46.514;30.724;2023-05-23T08:44:08;100564.56;;;36.01
42673;BMP280;28284;46.514;30.724;2023-05-23T08:46:33;100562.09;;;35.83
42673;BMP280;28284;46.514;30.724;2023-05-23T08:49:03;100561.53;;;35.92
42673;BMP280;28284;46.514;30.724;2023-05-23T08:51:29;100562.25;;;35.78
42673;BMP280;28284;46.514;30.724;2023-05-23T08:53:55;100551.34;;;35.17
42673;BMP280;28284;46.514;30.724;2023-05-23T08:56:21;100553.66;;;34.91
42673;BMP280;28284;46.514;30.724;2023-05-23T08:58:47;100552.06;;;34.75
42673;BMP280;28284;46.514;30.724;2023-05-23T09:01:13;100547.53;;;34.44
42673;BMP280;28284;46.514;30.724;2023-05-23T09:03:38;100539.63;;;34.43
42673;BMP280;28284;46.514;30.724;2023-05-23T09:06:07;100538.19;;;34.29
42673;BMP280;28284;46.514;30.724;2023-05-23T09:08:33;100542.31;;;33.87
42673;BMP280;28284;46.514;30.724;2023-05-23T09:10:58;100534.41;;;33.66
42673;BMP280;28284;46.514;30.724;2023-05-23T09:13:27;100523.22;;;33.53
42673;BMP280;28284;46.514;30.724;2023-05-23T09:18:24;100530.06;;;32.67
42673;BMP280;28284;46.514;30.724;2023-05-23T09:20:50;100526.25;;;32.26
42673;BMP280;28284;46.514;30.724;2023-05-23T09:23:15;100524.16;;;32.14
42673;BMP280;28284;46.514;30.724;2023-05-23T09:25:47;100529.78;;;31.96
42673;BMP280;28284;46.514;30.724;2023-05-23T09:28:13;100526.84;;;31.88
42673;BMP280;28284;46.514;30.724;2023-05-23T09:30:38;100528.59;;;31.91
42673;BMP280;28284;46.514;30.724;2023-05-23T09:33:03;100515.63;;;31.88
42673;BMP280;28284;46.514;30.724;2023-05-23T09:35:29;100524.50;;;31.74
42673;BMP280;28284;46.514;30.724;2023-05-23T09:37:55;100526.09;;;31.51
42673;BMP280;28284;46.514;30.724;2023-05-23T09:40:23;100521.13;;;31.44
42673;BMP280;28284;46.514;30.724;2023-05-23T09:42:53;100521.41;;;31.41
42673;BMP280;28284;46.514;30.724;2023-05-23T09:45:18;100519.06;;;31.45
42673;BMP280;28284;46.514;30.724;2023-05-23T09:47:50;100521.41;;;31.41
42673;BMP280;28284;46.514;30.724;2023-05-23T09:50:15;100523.81;;;31.31
42673;BMP280;28284;46.514;30.724;2023-05-23T09:52:41;100521.06;;;31.08
42673;BMP280;28284;46.514;30.724;2023-05-23T09:55:06;100523.56;;;30.87
42673;BMP280;28284;46.514;30.724;2023-05-23T09:57:36;100515.59;;;30.73
42673;BMP280;28284;46.514;30.724;2023-05-23T10:00:04;100518.25;;;30.60
42673;BMP280;28284;46.514;30.724;2023-05-23T10:02:54;100514.50;;;30.52
42673;BMP280;28284;46.514;30.724;2023-05-23T10:05:35;100510.81;;;30.39
42673;BMP280;28284;46.514;30.724;2023-05-23T10:08:04;100511.16;;;30.30
42673;BMP280;28284;46.514;30.724;2023-05-23T10:10:31;100502.06;;;30.24
42673;BMP280;28284;46.514;30.724;2023-05-23T10:12:58;100501.13;;;30.16
42673;BMP280;28284;46.514;30.724;2023-05-23T10:15:26;100502.38;;;30.15
42673;BMP280;28284;46.514;30.724;2023-05-23T10:20:38;100498.25;;;30.21
42673;BMP280;28284;46.514;30.724;2023-05-23T10:23:04;100491.19;;;30.15
42673;BMP280;28284;46.514;30.724;2023-05-23T10:25:29;100499.63;;;30.10
42673;BMP280;28284;46.514;30.724;2023-05-23T10:27:55;100492.03;;;30.05
42673;BMP280;28284;46.514;30.724;2023-05-23T10:30:25;100492.34;;;29.96
42673;BMP280;28284;46.514;30.724;2023-05-23T10:32:50;100484.25;;;29.92
42673;BMP280;28284;46.514;30.724;2023-05-23T10:35:36;100484.75;;;29.91
42673;BMP280;28284;46.514;30.724;2023-05-23T10:40:42;100479.09;;;29.67
42673;BMP280;28284;46.514;30.724;2023-05-23T10:43:28;100478.16;;;29.48
42673;BMP280;28284;46.514;30.724;2023-05-23T10:45:55;100478.28;;;29.21
42673;BMP280;28284;46.514;30.724;2023-05-23T10:48:33;100472.03;;;28.99
42673;BMP280;28284;46.514;30.724;2023-05-23T10:53:31;100480.19;;;28.70
42673;BMP280;28284;46.514;30.724;2023-05-23T10:55:56;100475.38;;;28.65
42673;BMP280;28284;46.514;30.724;2023-05-23T10:58:22;100470.84;;;28.56
42673;BMP280;28284;46.514;30.724;2023-05-23T11:01:21;100477.16;;;28.57
42673;BMP280;28284;46.514;30.724;2023-05-23T11:09:12;100476.91;;;28.71
42673;BMP280;28284;46.514;30.724;2023-05-23T11:14:16;100474.84;;;28.82
42673;BMP280;28284;46.514;30.724;2023-05-23T11:16:42;100470.00;;;28.83
42673;BMP280;28284;46.514;30.724;2023-05-23T11:21:52;100485.25;;;28.60
42673;BMP280;28284;46.514;30.724;2023-05-23T11:24:18;100491.63;;;28.33
42673;BMP280;28284;46.514;30.724;2023-05-23T11:26:53;100487.78;;;28.15
42673;BMP280;28284;46.514;30.724;2023-05-23T11:29:24;100484.47;;;27.89
42673;BMP280;28284;46.514;30.724;2023-05-23T11:31:50;100487.16;;;27.62
42673;BMP280;28284;46.514;30.724;2023-05-23T11:34:16;100489.31;;;27.36
42673;BMP280;28284;46.514;30.724;2023-05-23T11:36:42;100484.53;;;26.89
42673;BMP280;28284;46.514;30.724;2023-05-23T11:39:07;100480.22;;;26.58
42673;BMP280;28284;46.514;30.724;2023-05-23T11:41:33;100472.69;;;26.33
42673;BMP280;28284;46.514;30.724;2023-05-23T11:43:59;100473.31;;;26.22
42673;BMP280;28284;46.514;30.724;2023-05-23T11:46:25;100470.78;;;26.19
42673;BMP280;28284;46.514;30.724;2023-05-23T11:48:51;100464.91;;;26.12
42673;BMP280;28284;46.514;30.724;2023-05-23T11:51:16;100450.75;;;26.10
42673;BMP280;28284;46.514;30.724;2023-05-23T11:53:41;100460.78;;;26.27
42673;BMP280;28284;46.514;30.724;2023-05-23T11:56:07;100458.66;;;26.47
42673;BMP280;28284;46.514;30.724;2023-05-23T11:58:33;100459.53;;;26.59
42673;BMP280;28284;46.514;30.724;2023-05-23T12:01:02;100456.09;;;26.74
42673;BMP280;28284;46.514;30.724;2023-05-23T12:03:28;100456.19;;;26.91
42673;BMP280;28284;46.514;30.724;2023-05-23T12:05:54;100445.66;;;27.06
42673;BMP280;28284;46.514;30.724;2023-05-23T12:08:19;100460.44;;;27.23
42673;BMP280;28284;46.514;30.724;2023-05-23T12:10:57;100446.09;;;27.40
42673;BMP280;28284;46.514;30.724;2023-05-23T12:13:23;100433.00;;;27.57
42673;BMP280;28284;46.514;30.724;2023-05-23T12:15:52;100434.81;;;27.71
42673;BMP280;28284;46.514;30.724;2023-05-23T12:18:18;100442.19;;;27.85
42673;BMP280;28284;46.514;30.724;2023-05-23T12:20:43;100437.91;;;27.95
42673;BMP280;28284;46.514;30.724;2023-05-23T12:23:16;100444.97;;;27.96
42673;BMP280;28284;46.514;30.724;2023-05-23T12:25:41;100454.59;;;27.95
42673;BMP280;28284;46.514;30.724;2023-05-23T12:28:09;100460.66;;;27.93
42673;BMP280;28284;46.514;30.724;2023-05-23T12:30:41;100461.69;;;27.96
42673;BMP280;28284;46.514;30.724;2023-05-23T12:33:07;100457.88;;;27.93
42673;BMP280;28284;46.514;30.724;2023-05-23T12:35:32;100458.38;;;27.86
42673;BMP280;28284;46.514;30.724;2023-05-23T12:37:58;100459.41;;;27.83
42673;BMP280;28284;46.514;30.724;2023-05-23T12:40:23;100466.44;;;27.79
42673;BMP280;28284;46.514;30.724;2023-05-23T12:42:49;100458.03;;;27.57
42673;BMP280;28284;46.514;30.724;2023-05-23T12:45:15;100460.78;;;27.41
42673;BMP280;28284;46.514;30.724;2023-05-23T12:47:41;100464.78;;;27.34
42673;BMP280;28284;46.514;30.724;2023-05-23T12:50:06;100459.47;;;27.31
42673;BMP280;28284;46.514;30.724;2023-05-23T12:52:31;100457.47;;;27.37
42673;BMP280;28284;46.514;30.724;2023-05-23T12:54:57;100456.50;;;27.45
42673;BMP280;28284;46.514;30.724;2023-05-23T12:57:22;100466.13;;;27.50
42673;BMP280;28284;46.514;30.724;2023-05-23T12:59:47;100460.78;;;27.52
42673;BMP280;28284;46.514;30.724;2023-05-23T13:02:13;100466.13;;;27.55
42673;BMP280;28284;46.514;30.724;2023-05-23T13:04:38;100464.34;;;27.52
42673;BMP280;28284;46.514;30.724;2023-05-23T13:07:03;100478.97;;;27.42
42673;BMP280;28284;46.514;30.724;2023-05-23T13:09:28;100485.03;;;27.40
42673;BMP280;28284;46.514;30.724;2023-05-23T13:11:54;100490.84;;;27.37
42673;BMP280;28284;46.514;30.724;2023-05-23T13:14:19;100502.19;;;27.33
42673;BMP280;28284;46.514;30.724;2023-05-23T13:16:44;100498.38;;;27.25
42673;BMP280;28284;46.514;30.724;2023-05-23T13:19:10;100511.25;;;27.18
42673;BMP280;28284;46.514;30.724;2023-05-23T13:21:35;100513.66;;;27.05
42673;BMP280;28284;46.514;30.724;2023-05-23T13:24:00;100515.31;;;26.86
42673;BMP280;28284;46.514;30.724;2023-05-23T13:26:26;100506.28;;;26.66
42673;BMP280;28284;46.514;30.724;2023-05-23T13:28:51;100499.13;;;26.54
42673;BMP280;28284;46.514;30.724;2023-05-23T13:31:16;100495.53;;;26.48
42673;BMP280;28284;46.514;30.724;2023-05-23T13:33:42;100501.81;;;26.43
42673;BMP280;28284;46.514;30.724;2023-05-23T13:36:07;100511.13;;;26.40
42673;BMP280;28284;46.514;30.724;2023-05-23T13:38:32;100509.53;;;26.33
42673;BMP280;28284;46.514;30.724;2023-05-23T13:40:58;100511.75;;;26.24
42673;BMP280;28284;46.514;30.724;2023-05-23T13:43:23;100489.53;;;26.04
42673;BMP280;28284;46.514;30.724;2023-05-23T13:45:48;100502.72;;;26.09
42673;BMP280;28284;46.514;30.724;2023-05-23T13:48:14;100511.97;;;26.01
42673;BMP280;28284;46.514;30.724;2023-05-23T13:50:39;100514.69;;;25.95
42673;BMP280;28284;46.514;30.724;2023-05-23T13:53:04;100514.13;;;25.91
42673;BMP280;28284;46.514;30.724;2023-05-23T13:55:38;100516.56;;;25.84
42673;BMP280;28284;46.514;30.724;2023-05-23T13:58:03;100516.03;;;25.80
42673;BMP280;28284;46.514;30.724;2023-05-23T14:00:28;100515.94;;;25.74
42673;BMP280;28284;46.514;30.724;2023-05-23T14:02:54;100521.94;;;25.67
42673;BMP280;28284;46.514;30.724;2023-05-23T14:05:19;100514.00;;;25.61
42673;BMP280;28284;46.514;30.724;2023-05-23T14:07:44;100518.75;;;25.55
42673;BMP280;28284;46.514;30.724;2023-05-23T14:10:11;100513.31;;;25.46